Terminal Aerodrome Forecast
Issued by NWS Upton, NY

Home | Current Version | Previous Version | Text Only | Print | Product List | Glossary On
Versions: 1 2 3 4 5 6 7 8 9 10 11 12 13 14 15 16 17 18 19 20 21 22 23 24 25 26 27 28 29 30 31 32 33 34 35 36 37
000
FTUS41 KOKX 301306 AAB
TAFEWR
TAF AMD
KEWR 301306Z 3013/3118 20008KT P6SM SCT017
      TEMPO 3014/3016 BKN017
     FM301600 20013G19KT P6SM SCT035 BKN250
     FM301900 19015G21KT P6SM SCT040 BKN250
     FM310100 20009KT P6SM SCT250
     FM310900 22006KT P6SM VCSH SCT020 BKN040
     FM311600 21008KT 5SM -SHRA OVC040=

USA.gov is the U.S. government's official web portal to all federal, state and local government web resources and services.